createdAt,value
2022-08-25T00:04:57.494Z,95874.00
2022-08-25T00:10:26.238Z,95867.00
2022-08-25T00:15:54.636Z,95862.00
2022-08-25T00:21:23.654Z,95858.00
2022-08-25T00:26:55.409Z,95864.00
2022-08-25T00:32:24.563Z,95862.00
2022-08-25T00:37:52.359Z,95862.00
2022-08-25T00:43:20.331Z,95857.00
2022-08-25T00:48:54.125Z,95850.00
2022-08-25T00:54:32.776Z,95847.00
2022-08-25T01:00:01.420Z,95839.00
2022-08-25T01:05:31.325Z,95840.00
2022-08-25T01:11:05.523Z,95834.00
2022-08-25T01:16:38.726Z,95841.00
2022-08-25T01:22:07.519Z,95839.00
2022-08-25T01:27:35.525Z,95830.00
2022-08-25T01:33:07.079Z,95834.00
2022-08-25T01:38:34.910Z,95830.00
2022-08-25T01:44:07.357Z,95823.00
2022-08-25T01:49:42.531Z,95829.00
2022-08-25T01:55:10.305Z,95825.00
2022-08-25T02:00:38.276Z,95821.00
2022-08-25T02:06:07.850Z,95831.00
2022-08-25T02:11:39.186Z,95832.00
2022-08-25T02:17:07.812Z,95836.00
2022-08-25T02:22:35.925Z,95828.00
2022-08-25T02:28:04.330Z,95828.00
2022-08-25T02:33:41.455Z,95828.00
2022-08-25T02:39:10.841Z,95821.00
2022-08-25T02:44:38.787Z,95813.00
2022-08-25T02:50:08.992Z,95816.00
2022-08-25T02:55:37.159Z,95812.00
2022-08-25T03:01:06.036Z,95806.00
2022-08-25T03:06:34.529Z,95802.00
2022-08-25T03:12:02.579Z,95796.00
2022-08-25T03:17:30.548Z,95797.00
2022-08-25T03:23:07.261Z,95802.00
2022-08-25T03:28:45.391Z,95804.00
2022-08-25T03:34:18.647Z,95800.00
2022-08-25T03:39:46.590Z,95795.00
2022-08-25T03:45:17.343Z,95794.00
2022-08-25T03:50:51.527Z,95792.00
2022-08-25T03:56:20.364Z,95784.00
2022-08-25T04:01:54.027Z,95783.00
2022-08-25T04:07:22.862Z,95786.00
2022-08-25T04:12:50.754Z,95790.00
2022-08-25T04:18:18.545Z,95792.00
2022-08-25T04:23:49.055Z,95801.00
2022-08-25T04:29:28.145Z,95794.00
2022-08-25T04:34:59.176Z,95799.00
2022-08-25T04:40:29.062Z,95800.00
2022-08-25T04:45:57.469Z,95793.00
2022-08-25T04:51:40.460Z,95802.00
2022-08-25T04:57:08.270Z,95793.00
2022-08-25T05:02:36.250Z,95792.00
2022-08-25T05:08:06.661Z,95793.00
2022-08-25T05:13:36.221Z,95787.00
2022-08-25T05:19:04.927Z,95787.00
2022-08-25T05:24:32.834Z,95788.00
2022-08-25T05:30:00.627Z,95786.00
2022-08-25T05:35:28.522Z,95784.00
2022-08-25T05:41:03.118Z,95775.00
2022-08-25T05:46:31.763Z,95783.00
2022-08-25T05:51:59.907Z,95783.00
2022-08-25T05:57:27.733Z,95784.00
2022-08-25T06:02:55.577Z,95781.00
2022-08-25T06:08:24.196Z,95781.00
2022-08-25T06:13:51.965Z,95775.00
2022-08-25T06:19:19.848Z,95760.00
2022-08-25T06:24:48.196Z,95764.00
2022-08-25T06:30:24.141Z,95770.00
2022-08-25T06:35:59.576Z,95769.00
2022-08-25T06:41:27.633Z,95765.00
2022-08-25T06:47:05.095Z,95772.00
2022-08-25T06:52:33.401Z,95774.00
2022-08-25T06:58:03.391Z,95781.00
2022-08-25T07:03:32.762Z,95780.00
2022-08-25T07:09:00.600Z,95781.00
2022-08-25T07:14:28.614Z,95780.00
2022-08-25T07:19:57.514Z,95780.00
2022-08-25T07:25:25.565Z,95778.00
2022-08-25T07:30:53.438Z,95775.00
2022-08-25T07:36:22.538Z,95782.00
2022-08-25T07:41:52.016Z,95774.00
2022-08-25T07:47:20.327Z,95776.00
2022-08-25T07:52:55.289Z,95775.00
2022-08-25T07:58:24.249Z,95771.00
2022-08-25T08:03:53.263Z,95775.00
2022-08-25T08:09:21.140Z,95783.00
2022-08-25T08:14:49.466Z,95790.00
2022-08-25T08:20:17.849Z,95781.00
2022-08-25T08:25:51.578Z,95775.00
2022-08-25T08:31:24.270Z,95775.00
2022-08-25T08:36:54.575Z,95772.00
2022-08-25T08:42:47.308Z,95767.00
2022-08-25T08:48:20.711Z,95767.00
2022-08-25T08:53:54.997Z,95761.00
2022-08-25T08:59:33.259Z,95755.00
2022-08-25T09:05:08.739Z,95753.00
2022-08-25T09:10:45.760Z,95747.00
2022-08-25T09:16:56.417Z,95739.00
2022-08-25T09:22:38.084Z,95737.00
2022-08-25T09:28:51.501Z,95746.00
2022-08-25T09:34:23.159Z,95742.00
2022-08-25T09:39:51.453Z,95736.00
2022-08-25T09:45:34.637Z,95730.00
2022-08-25T09:51:42.668Z,95731.00
2022-08-25T09:57:34.559Z,95715.00
2022-08-25T10:03:14.211Z,95710.00
2022-08-25T10:08:46.933Z,95709.00
2022-08-25T10:14:22.871Z,95708.00
2022-08-25T10:20:11.767Z,95695.00
2022-08-25T10:25:59.294Z,95695.00
2022-08-25T10:32:00.613Z,95700.00
2022-08-25T10:37:43.808Z,95686.00
2022-08-25T10:44:02.011Z,95689.00
2022-08-25T10:49:56.254Z,95690.00
2022-08-25T10:55:54.209Z,95682.00
2022-08-25T11:01:47.939Z,95682.00
2022-08-25T11:07:29.810Z,95688.00
2022-08-25T11:13:01.966Z,95670.00
2022-08-25T11:18:32.028Z,95673.00
2022-08-25T11:24:29.141Z,95670.00
2022-08-25T11:30:15.831Z,95672.00
2022-08-25T11:35:51.441Z,95657.00
2022-08-25T11:41:58.137Z,95660.00
2022-08-25T11:48:25.368Z,95644.00
2022-08-25T11:54:27.503Z,95638.00
2022-08-25T12:00:14.761Z,95636.00
2022-08-25T12:06:14.390Z,95645.00
2022-08-25T12:11:43.114Z,95627.00
2022-08-25T12:17:25.109Z,95646.00
2022-08-25T12:22:57.005Z,95637.00
2022-08-25T12:29:07.570Z,95636.00
2022-08-25T12:35:10.290Z,95634.00
2022-08-25T12:40:45.410Z,95648.00
2022-08-25T12:46:27.564Z,95639.00
2022-08-25T12:52:20.119Z,95630.00
2022-08-25T12:57:58.782Z,95630.00
2022-08-25T13:04:12.666Z,95625.00
2022-08-25T13:10:15.972Z,95613.00
2022-08-25T13:16:02.275Z,95615.00
2022-08-25T13:21:38.661Z,95610.00
2022-08-25T13:27:10.723Z,95597.00
2022-08-25T13:32:39.598Z,95601.00
2022-08-25T13:38:19.567Z,95599.00
2022-08-25T13:43:47.903Z,95594.00
2022-08-25T13:49:26.662Z,95588.00
2022-08-25T13:55:00.793Z,95585.00
2022-08-25T14:00:43.169Z,95594.00
2022-08-25T14:06:17.124Z,95584.00
2022-08-25T14:11:56.595Z,95567.00
2022-08-25T14:17:39.138Z,95573.00
2022-08-25T14:23:16.144Z,95568.00
2022-08-25T14:28:46.993Z,95566.00
2022-08-25T14:34:39.570Z,95558.00
2022-08-25T14:40:12.675Z,95576.00
2022-08-25T14:45:48.234Z,95573.00
2022-08-25T14:51:19.091Z,95579.00
2022-08-25T14:56:49.911Z,95579.00
2022-08-25T15:02:20.291Z,95577.00
2022-08-25T15:08:07.288Z,95573.00
2022-08-25T15:13:35.793Z,95571.00
2022-08-25T15:19:11.826Z,95571.00
2022-08-25T15:24:39.699Z,95566.00
2022-08-25T15:30:09.184Z,95573.00
2022-08-25T15:35:41.627Z,95568.00
2022-08-25T15:41:12.858Z,95568.00
2022-08-25T15:46:41.735Z,95566.00
2022-08-25T15:52:15.110Z,95565.00
2022-08-25T15:57:43.567Z,95551.00
2022-08-25T16:03:12.442Z,95549.00
2022-08-25T16:08:41.228Z,95544.00
2022-08-25T16:14:12.081Z,95549.00
2022-08-25T16:19:41.800Z,95547.00
2022-08-25T16:25:10.818Z,95546.00
2022-08-25T16:30:42.774Z,95549.00
2022-08-25T16:36:22.780Z,95540.00
2022-08-25T16:41:52.221Z,95538.00
2022-08-25T16:47:25.214Z,95546.00
2022-08-25T16:53:13.616Z,95548.00
2022-08-25T16:58:41.636Z,95541.00
2022-08-25T17:04:13.765Z,95543.00
2022-08-25T17:09:41.895Z,95546.00
2022-08-25T17:15:10.121Z,95540.00
2022-08-25T17:20:38.433Z,95547.00
2022-08-25T17:26:07.054Z,95541.00
2022-08-25T17:31:43.151Z,95546.00
2022-08-25T17:37:12.119Z,95543.00
2022-08-25T17:42:40.826Z,95545.00
2022-08-25T17:48:09.998Z,95547.00
2022-08-25T17:53:38.657Z,95541.00
2022-08-25T17:59:06.886Z,95547.00
2022-08-25T18:04:35.718Z,95540.00
2022-08-25T18:10:08.895Z,95543.00
2022-08-25T18:15:36.925Z,95554.00
2022-08-25T18:21:05.817Z,95561.00
2022-08-25T18:26:35.440Z,95565.00
2022-08-25T18:32:04.980Z,95562.00
2022-08-25T18:37:53.402Z,95565.00
2022-08-25T18:43:21.490Z,95565.00
2022-08-25T18:48:52.836Z,95570.00
2022-08-25T18:54:23.307Z,95569.00
2022-08-25T18:59:52.928Z,95579.00
2022-08-25T19:05:31.912Z,95573.00
2022-08-25T19:11:01.035Z,95572.00
2022-08-25T19:16:47.004Z,95572.00
2022-08-25T19:22:31.794Z,95567.00
2022-08-25T19:28:07.122Z,95568.00
2022-08-25T19:33:44.135Z,95570.00
2022-08-25T19:39:16.482Z,95574.00
2022-08-25T19:44:45.132Z,95571.00
2022-08-25T19:50:16.724Z,95572.00
2022-08-25T19:55:44.925Z,95570.00
2022-08-25T20:01:13.035Z,95571.00
2022-08-25T20:06:48.261Z,95574.00
2022-08-25T20:12:17.916Z,95580.00
2022-08-25T20:17:46.173Z,95583.00
2022-08-25T20:23:32.699Z,95580.00
2022-08-25T20:29:00.788Z,95582.00
2022-08-25T20:34:32.657Z,95574.00
2022-08-25T20:40:02.269Z,95571.00
2022-08-25T20:45:33.467Z,95584.00
2022-08-25T20:51:09.401Z,95582.00
2022-08-25T20:56:38.623Z,95575.00
2022-08-25T21:02:06.884Z,95584.00
2022-08-25T21:07:38.186Z,95580.00
2022-08-25T21:13:08.155Z,95574.00
2022-08-25T21:18:36.828Z,95565.00
2022-08-25T21:24:09.735Z,95570.00
2022-08-25T21:29:38.443Z,95568.00
2022-08-25T21:35:13.298Z,95563.00
2022-08-25T21:40:44.904Z,95558.00
2022-08-25T21:46:19.469Z,95561.00
2022-08-25T21:51:47.338Z,95565.00
2022-08-25T21:57:23.534Z,95570.00
2022-08-25T22:02:56.241Z,95567.00
2022-08-25T22:08:24.188Z,95561.00
2022-08-25T22:14:00.685Z,95562.00
2022-08-25T22:19:28.719Z,95560.00
2022-08-25T22:24:56.602Z,95564.00
2022-08-25T22:30:26.102Z,95560.00
2022-08-25T22:35:59.756Z,95548.00
2022-08-25T22:41:30.278Z,95543.00
2022-08-25T22:46:58.257Z,95547.00
2022-08-25T22:52:33.594Z,95544.00
2022-08-25T22:58:02.520Z,95540.00
2022-08-25T23:03:30.980Z,95538.00
2022-08-25T23:09:04.644Z,95529.00
2022-08-25T23:14:42.214Z,95531.00
2022-08-25T23:20:31.113Z,95530.00
2022-08-25T23:25:59.069Z,95525.00
2022-08-25T23:31:26.965Z,95523.00
2022-08-25T23:36:57.106Z,95518.00
2022-08-25T23:42:25.151Z,95512.00
2022-08-25T23:47:53.222Z,95509.00
2022-08-25T23:53:21.521Z,95515.00
2022-08-25T23:58:49.537Z,95501.00
